Time;durP1;ratioP1;P1;durP2;ratioP2;P2;SDS_P1;SDS_P2;PMS_P1;PMS_P2;Temp;Humidity;BMP_temperature;BMP_pressure;BME280_temperature;BME280_humidity;BME280_pressure;Samples;Min_cycle;Max_cycle;Signal;HPM_P1;HPM_P2
2023/04/18 00:02:15;;;;;;;13.13;11.60;;;7.70;99.90;;;;;;5074835;28;20128;-77
2023/04/18 00:04:45;;;;;;;14.38;11.73;;;7.80;99.90;;;;;;5075504;28;20079;-77
2023/04/18 00:07:14;;;;;;;13.85;11.82;;;7.70;99.90;;;;;;5074932;28;20488;-76
2023/04/18 00:09:40;;;;;;;13.88;12.27;;;7.70;99.90;;;;;;5074671;28;20048;-77
2023/04/18 00:12:06;;;;;;;14.63;13.13;;;7.60;99.90;;;;;;5075460;28;20052;-76
2023/04/18 00:14:33;;;;;;;14.95;11.88;;;7.60;99.90;;;;;;5107666;28;20170;-77
2023/04/18 00:17:01;;;;;;;16.48;12.90;;;7.50;99.90;;;;;;5072929;28;20542;-76
2023/04/18 00:19:27;;;;;;;14.05;11.85;;;7.50;99.90;;;;;;5074921;28;20052;-76
2023/04/18 00:21:52;;;;;;;12.77;10.95;;;7.50;99.90;;;;;;5074849;28;20491;-77
2023/04/18 00:24:18;;;;;;;14.43;12.18;;;7.50;99.90;;;;;;5074935;28;20076;-77
2023/04/18 00:26:44;;;;;;;13.30;11.55;;;7.50;99.90;;;;;;5074574;28;20051;-77
2023/04/18 00:29:10;;;;;;;13.05;11.65;;;7.40;99.90;;;;;;5074523;28;20123;-76
2023/04/18 00:31:36;;;;;;;14.27;11.70;;;7.40;99.90;;;;;;5074510;28;20040;-76
2023/04/18 00:34:02;;;;;;;12.38;10.90;;;7.40;99.90;;;;;;5074426;28;20044;-77
2023/04/18 00:36:27;;;;;;;15.38;12.13;;;7.40;99.90;;;;;;5074144;28;20041;-77
2023/04/18 00:38:53;;;;;;;14.23;10.85;;;7.40;99.90;;;;;;5074901;28;20043;-77
2023/04/18 00:41:21;;;;;;;15.23;10.80;;;7.30;99.90;;;;;;5074805;28;20075;-77
2023/04/18 00:43:46;;;;;;;12.43;10.40;;;7.30;99.90;;;;;;5074798;28;20083;-77
2023/04/18 00:46:12;;;;;;;12.07;10.02;;;7.30;99.90;;;;;;5091143;28;20074;-77
2023/04/18 00:48:38;;;;;;;10.98;9.25;;;7.30;99.90;;;;;;5074317;28;20044;-77
2023/04/18 00:51:08;;;;;;;18.10;10.40;;;7.40;99.90;;;;;;5074321;28;20119;-77
2023/04/18 00:53:34;;;;;;;13.10;9.60;;;7.30;99.90;;;;;;5074369;28;20052;-77
2023/04/18 00:56:00;;;;;;;11.52;10.18;;;7.30;99.90;;;;;;5074454;28;20067;-77
2023/04/18 00:58:26;;;;;;;13.18;10.20;;;7.30;99.90;;;;;;5074115;28;20056;-76
2023/04/18 01:00:53;;;;;;;12.20;8.70;;;7.30;99.90;;;;;;5074080;28;20098;-76
2023/04/18 01:03:21;;;;;;;12.02;9.40;;;7.30;99.90;;;;;;5074299;28;20044;-76
2023/04/18 01:05:47;;;;;;;12.38;10.40;;;7.30;99.90;;;;;;5073979;28;20052;-77
2023/04/18 01:08:13;;;;;;;12.05;9.82;;;7.30;99.90;;;;;;5073762;28;20060;-77
2023/04/18 01:10:38;;;;;;;12.25;9.18;;;7.20;99.90;;;;;;5106968;28;20044;-77
2023/04/18 01:13:16;;;;;;;15.00;9.90;;;7.20;99.90;;;;;;5073728;28;20131;-77
2023/04/18 01:15:48;;;;;;;12.45;9.73;;;7.20;99.90;;;;;;5072707;28;20091;-76
2023/04/18 01:18:17;;;;;;;11.75;10.32;;;7.10;99.90;;;;;;5072658;28;20052;-77
2023/04/18 01:20:49;;;;;;;14.05;9.38;;;7.10;99.90;;;;;;5073711;28;20504;-77
2023/04/18 01:23:16;;;;;;;9.98;8.98;;;7.10;99.90;;;;;;5073848;28;20394;-76
2023/04/18 01:25:42;;;;;;;14.65;11.10;;;7.10;99.90;;;;;;5073169;28;20041;-77
2023/04/18 01:28:09;;;;;;;12.43;8.93;;;7.10;99.90;;;;;;5072890;28;20052;-77
2023/04/18 01:30:35;;;;;;;11.32;9.98;;;7.10;99.90;;;;;;5071893;28;20049;-76
2023/04/18 01:33:02;;;;;;;12.02;10.55;;;7.10;99.90;;;;;;5073566;28;20076;-77
2023/04/18 01:35:28;;;;;;;12.55;10.80;;;7.10;99.90;;;;;;5073803;28;20499;-77
2023/04/18 01:37:54;;;;;;;12.85;10.70;;;7.10;99.90;;;;;;5072229;28;20059;-76
2023/04/18 01:40:20;;;;;;;12.05;10.75;;;7.10;99.90;;;;;;5072355;28;20048;-77
2023/04/18 01:42:46;;;;;;;11.88;10.52;;;7.20;99.90;;;;;;5071966;28;20084;-77
2023/04/18 01:45:12;;;;;;;11.88;9.90;;;7.20;99.90;;;;;;5073118;28;20366;-77
2023/04/18 01:47:38;;;;;;;13.68;11.38;;;7.20;99.90;;;;;;5088942;28;20044;-77
2023/04/18 01:50:04;;;;;;;14.77;10.90;;;7.20;99.90;;;;;;5072969;28;20036;-77
2023/04/18 01:52:30;;;;;;;13.77;11.43;;;7.20;99.90;;;;;;5073288;28;20044;-76
2023/04/18 01:54:56;;;;;;;15.43;10.90;;;7.20;99.90;;;;;;5072926;28;20053;-76
2023/04/18 01:57:22;;;;;;;13.38;11.82;;;7.20;99.90;;;;;;5073318;28;20084;-77
2023/04/18 01:59:47;;;;;;;13.02;11.73;;;7.20;99.90;;;;;;5073388;28;20044;-76
2023/04/18 02:02:13;;;;;;;13.18;11.52;;;7.30;99.90;;;;;;5072622;28;20041;-76
2023/04/18 02:04:39;;;;;;;14.60;11.95;;;7.30;99.90;;;;;;5088920;28;20121;-77
2023/04/18 02:07:04;;;;;;;15.38;10.63;;;7.30;99.90;;;;;;5088670;28;20084;-76
2023/04/18 02:09:30;;;;;;;13.13;11.30;;;7.30;99.90;;;;;;5088493;28;20044;-77
2023/04/18 02:11:58;;;;;;;14.02;11.48;;;7.30;99.90;;;;;;5072749;28;20536;-77
2023/04/18 02:14:30;;;;;;;13.23;11.02;;;7.30;99.90;;;;;;5072408;28;20490;-77
2023/04/18 02:16:57;;;;;;;12.50;10.68;;;7.30;99.90;;;;;;5072735;28;20048;-76
2023/04/18 02:19:23;;;;;;;11.05;9.93;;;7.30;99.90;;;;;;5071788;28;20056;-76
2023/04/18 02:21:50;;;;;;;16.38;11.25;;;7.30;99.90;;;;;;5072589;28;20040;-76
2023/04/18 02:24:15;;;;;;;14.05;10.32;;;7.40;99.90;;;;;;5072689;28;20407;-77
2023/04/18 02:26:42;;;;;;;13.38;10.73;;;7.40;99.90;;;;;;5071918;28;20125;-76
2023/04/18 02:29:07;;;;;;;13.40;10.23;;;7.40;99.90;;;;;;5072460;28;20083;-76
2023/04/18 02:31:33;;;;;;;11.98;10.35;;;7.40;99.90;;;;;;5072520;28;20040;-77
2023/04/18 02:33:59;;;;;;;13.07;9.73;;;7.40;99.90;;;;;;5088402;28;20077;-76
2023/04/18 02:36:26;;;;;;;14.27;10.23;;;7.40;99.90;;;;;;5072489;28;20044;-76
2023/04/18 02:38:53;;;;;;;16.20;10.63;;;7.40;99.90;;;;;;5071916;28;20067;-76
2023/04/18 02:41:19;;;;;;;12.93;9.00;;;7.50;99.90;;;;;;5072706;28;20059;-76
2023/04/18 02:43:45;;;;;;;11.85;10.13;;;7.50;99.90;;;;;;5072443;28;20051;-77
2023/04/18 02:46:11;;;;;;;12.10;9.75;;;7.50;99.90;;;;;;5071298;28;20047;-76
2023/04/18 02:48:37;;;;;;;12.50;9.00;;;7.50;99.90;;;;;;5072626;28;20052;-76
2023/04/18 02:51:04;;;;;;;10.48;9.05;;;7.50;99.90;;;;;;5072257;28;20044;-77
2023/04/18 02:53:30;;;;;;;9.70;8.73;;;7.50;99.90;;;;;;5072894;28;20436;-76
2023/04/18 02:55:55;;;;;;;10.23;9.15;;;7.60;99.90;;;;;;5104541;28;20099;-77
2023/04/18 02:58:21;;;;;;;12.30;9.48;;;7.60;99.90;;;;;;5072542;28;20486;-77
2023/04/18 03:00:49;;;;;;;10.95;9.70;;;7.50;99.90;;;;;;5071243;28;20049;-76
2023/04/18 03:03:15;;;;;;;11.52;9.13;;;7.50;99.90;;;;;;5072232;28;20106;-77
2023/04/18 03:05:41;;;;;;;9.02;8.13;;;7.50;99.90;;;;;;5071924;28;20052;-77
2023/04/18 03:08:07;;;;;;;10.32;8.48;;;7.50;99.90;;;;;;5072378;28;20036;-77
2023/04/18 03:10:32;;;;;;;11.50;8.43;;;7.60;99.90;;;;;;5071879;28;20518;-76
2023/04/18 03:12:58;;;;;;;11.35;9.05;;;7.50;99.90;;;;;;5071898;28;20094;-77
2023/04/18 03:15:24;;;;;;;9.38;8.00;;;7.50;99.90;;;;;;5072016;28;20056;-77
2023/04/18 03:17:49;;;;;;;11.98;9.10;;;7.60;99.90;;;;;;5071932;28;20055;-76
2023/04/18 03:20:16;;;;;;;10.18;8.77;;;7.50;99.90;;;;;;5072175;28;20043;-77
2023/04/18 03:22:42;;;;;;;12.82;9.73;;;7.50;99.90;;;;;;5071154;28;20056;-76
2023/04/18 03:25:08;;;;;;;11.68;8.38;;;7.50;99.90;;;;;;5072246;28;20055;-77
2023/04/18 03:27:34;;;;;;;10.20;8.48;;;7.50;99.90;;;;;;5071208;28;20044;-77
2023/04/18 03:30:00;;;;;;;12.60;8.75;;;7.50;99.90;;;;;;5072230;28;20040;-77
2023/04/18 03:32:26;;;;;;;12.85;9.35;;;7.50;99.90;;;;;;5071736;28;20048;-77
2023/04/18 03:34:52;;;;;;;11.75;8.77;;;7.50;99.90;;;;;;5071735;28;20053;-76
2023/04/18 03:37:18;;;;;;;11.77;8.55;;;7.60;99.90;;;;;;5072005;28;20052;-77
2023/04/18 03:39:43;;;;;;;10.43;8.32;;;7.60;99.90;;;;;;5071801;28;20124;-77
2023/04/18 03:42:09;;;;;;;10.05;8.05;;;7.60;99.90;;;;;;5071736;28;20131;-77
2023/04/18 03:44:35;;;;;;;10.15;8.43;;;7.60;99.90;;;;;;5071642;28;20052;-76
2023/04/18 03:47:00;;;;;;;10.57;8.05;;;7.60;99.90;;;;;;5070980;28;20041;-77
2023/04/18 03:49:26;;;;;;;13.35;7.90;;;7.60;99.90;;;;;;5071708;28;20134;-77
2023/04/18 03:51:52;;;;;;;10.02;7.63;;;7.50;99.90;;;;;;5072896;28;20454;-77
2023/04/18 03:54:18;;;;;;;11.07;8.18;;;7.60;99.90;;;;;;5074698;28;20040;-75
2023/04/18 03:56:44;;;;;;;8.00;6.82;;;7.60;99.90;;;;;;5075525;28;20048;-77
2023/04/18 03:59:10;;;;;;;8.80;7.25;;;7.60;99.90;;;;;;5074351;28;20060;-76
2023/04/18 04:01:36;;;;;;;8.05;7.25;;;7.60;99.90;;;;;;5074786;28;20075;-77
2023/04/18 04:04:03;;;;;;;7.97;7.15;;;7.70;99.90;;;;;;5075033;28;20044;-78
2023/04/18 04:06:30;;;;;;;9.15;7.32;;;7.70;99.90;;;;;;5075143;28;20044;-77
2023/04/18 04:08:56;;;;;;;8.10;6.82;;;7.60;99.90;;;;;;5074622;28;20458;-77
2023/04/18 04:11:21;;;;;;;9.25;7.45;;;7.60;99.90;;;;;;5074993;28;20040;-77
2023/04/18 04:13:47;;;;;;;10.30;7.93;;;7.60;99.90;;;;;;5074818;28;20098;-77
2023/04/18 04:16:13;;;;;;;8.68;6.82;;;7.60;99.90;;;;;;5074207;28;20048;-77
2023/04/18 04:18:39;;;;;;;7.93;6.68;;;7.60;99.90;;;;;;5074970;28;20123;-77
2023/04/18 04:21:05;;;;;;;9.60;7.68;;;7.60;99.90;;;;;;5073535;28;20056;-77
2023/04/18 04:23:32;;;;;;;10.82;7.72;;;7.60;99.90;;;;;;5074725;28;20048;-77
2023/04/18 04:26:01;;;;;;;7.97;6.80;;;7.70;99.90;;;;;;5074779;28;20040;-77
2023/04/18 04:28:27;;;;;;;8.07;6.63;;;7.60;99.90;;;;;;5074669;28;20123;-77
2023/04/18 04:30:54;;;;;;;9.25;7.57;;;7.60;99.90;;;;;;5074884;28;20133;-77
2023/04/18 04:33:24;;;;;;;8.57;6.95;;;7.60;99.90;;;;;;5073821;28;20181;-77
2023/04/18 04:35:51;;;;;;;8.15;7.13;;;7.60;99.90;;;;;;5074609;28;20126;-77
2023/04/18 04:38:18;;;;;;;9.75;7.25;;;7.60;99.90;;;;;;5074785;28;20056;-77
2023/04/18 04:40:45;;;;;;;11.32;7.13;;;7.60;99.90;;;;;;5074069;28;20048;-76
2023/04/18 04:43:14;;;;;;;9.20;7.20;;;7.50;99.90;;;;;;5074195;28;20082;-77
2023/04/18 04:45:40;;;;;;;10.77;7.85;;;7.50;99.90;;;;;;5074142;28;20048;-77
2023/04/18 04:48:10;;;;;;;9.38;7.72;;;7.50;99.90;;;;;;5073970;28;20124;-77
2023/04/18 04:50:37;;;;;;;9.52;7.15;;;7.50;99.90;;;;;;5073905;28;20115;-77
2023/04/18 04:53:05;;;;;;;11.13;7.85;;;7.50;99.90;;;;;;5074016;28;20458;-77
2023/04/18 04:55:31;;;;;;;9.32;8.27;;;7.50;99.90;;;;;;5072544;28;20095;-77
2023/04/18 04:57:57;;;;;;;9.20;7.20;;;7.50;99.90;;;;;;5074362;28;20053;-77
2023/04/18 05:00:23;;;;;;;9.27;7.47;;;7.50;99.90;;;;;;5073811;28;20044;-77
2023/04/18 05:02:52;;;;;;;9.77;8.25;;;7.50;99.90;;;;;;5073688;28;20052;-77
2023/04/18 05:05:18;;;;;;;9.07;8.27;;;7.50;99.90;;;;;;5074096;28;20052;-77
2023/04/18 05:07:43;;;;;;;10.15;8.73;;;7.50;99.90;;;;;;5073727;28;20533;-77
2023/04/18 05:10:09;;;;;;;10.40;7.65;;;7.50;99.90;;;;;;5073617;28;20044;-77
2023/04/18 05:12:35;;;;;;;10.57;9.10;;;7.50;99.90;;;;;;5074024;28;20049;-77
2023/04/18 05:15:01;;;;;;;11.57;9.57;;;7.50;99.90;;;;;;5073859;28;20083;-77
2023/04/18 05:17:27;;;;;;;10.75;9.05;;;7.50;99.90;;;;;;5073804;28;20053;-77
2023/04/18 05:19:52;;;;;;;12.13;9.35;;;7.50;99.90;;;;;;5073888;28;20102;-77
2023/04/18 05:22:18;;;;;;;14.18;9.38;;;7.60;99.90;;;;;;5073338;28;20063;-77
2023/04/18 05:24:45;;;;;;;14.00;9.75;;;7.60;99.90;;;;;;5073945;28;20040;-77
2023/04/18 05:27:12;;;;;;;12.38;9.25;;;7.60;99.90;;;;;;5073499;28;20055;-78
2023/04/18 05:29:38;;;;;;;13.02;9.32;;;7.60;99.90;;;;;;5073477;28;20036;-78
2023/04/18 05:32:05;;;;;;;12.38;10.30;;;7.60;99.90;;;;;;5073406;28;20048;-78
2023/04/18 05:34:31;;;;;;;11.13;9.88;;;7.60;99.90;;;;;;5072952;28;20460;-78
2023/04/18 05:36:57;;;;;;;13.40;9.90;;;7.60;99.90;;;;;;5073309;28;20055;-78
2023/04/18 05:39:23;;;;;;;12.02;9.43;;;7.70;99.90;;;;;;5072939;28;20053;-77
2023/04/18 05:41:48;;;;;;;13.57;10.02;;;7.70;99.90;;;;;;5088885;28;20040;-77
2023/04/18 05:44:15;;;;;;;10.52;9.43;;;7.70;99.90;;;;;;5073048;28;20048;-77
2023/04/18 05:46:41;;;;;;;14.40;11.38;;;7.80;99.90;;;;;;5073355;28;20048;-77
2023/04/18 05:49:07;;;;;;;15.32;10.85;;;7.80;99.90;;;;;;5073068;28;20461;-77
2023/04/18 05:51:33;;;;;;;16.05;10.48;;;7.80;99.90;;;;;;5073083;28;20048;-77
2023/04/18 05:53:58;;;;;;;13.23;10.45;;;7.80;99.90;;;;;;5088758;28;20040;-77
2023/04/18 05:56:24;;;;;;;14.82;10.93;;;7.90;99.90;;;;;;5073566;28;20095;-78
2023/04/18 05:58:50;;;;;;;12.73;10.57;;;7.90;99.90;;;;;;5073050;28;20135;-77
2023/04/18 06:01:19;;;;;;;11.13;9.98;;;8.00;99.90;;;;;;5089256;28;20472;-77
2023/04/18 06:03:44;;;;;;;16.85;11.90;;;8.00;99.90;;;;;;5073400;28;20137;-76
2023/04/18 06:06:10;;;;;;;16.35;11.35;;;8.00;99.90;;;;;;5072775;28;20067;-77
2023/04/18 06:08:38;;;;;;;12.35;10.68;;;8.00;99.90;;;;;;5072773;28;20044;-78
2023/04/18 06:11:04;;;;;;;15.10;10.25;;;8.10;99.90;;;;;;5072941;28;20107;-77
2023/04/18 06:13:30;;;;;;;15.27;10.77;;;8.20;99.90;;;;;;5072757;28;20477;-77
2023/04/18 06:15:56;;;;;;;12.38;10.35;;;8.20;99.90;;;;;;5072107;28;20044;-77
2023/04/18 06:18:21;;;;;;;13.02;10.85;;;8.20;99.90;;;;;;5072302;28;20049;-77
2023/04/18 06:20:47;;;;;;;15.90;10.73;;;8.20;99.90;;;;;;5088421;28;20048;-77
2023/04/18 06:23:13;;;;;;;13.07;10.45;;;8.30;99.90;;;;;;5071301;28;20102;-77
2023/04/18 06:25:41;;;;;;;11.32;9.43;;;8.30;99.90;;;;;;5071983;28;20087;-77
2023/04/18 06:28:07;;;;;;;11.40;10.15;;;8.40;99.90;;;;;;5072382;28;20093;-76
2023/04/18 06:30:33;;;;;;;13.88;10.10;;;8.30;99.90;;;;;;5072217;28;20053;-77
2023/04/18 06:32:59;;;;;;;13.35;10.43;;;8.40;99.90;;;;;;5072492;28;20064;-77
2023/04/18 06:35:25;;;;;;;12.85;9.95;;;8.40;99.90;;;;;;5072187;28;20488;-77
2023/04/18 06:37:51;;;;;;;12.85;10.60;;;8.40;99.90;;;;;;5072143;28;20067;-77
2023/04/18 06:40:17;;;;;;;13.38;9.88;;;8.40;99.90;;;;;;5072165;28;20045;-77
2023/04/18 06:42:42;;;;;;;12.07;9.27;;;8.60;99.90;;;;;;5072168;28;20048;-76
2023/04/18 06:45:12;;;;;;;12.18;9.77;;;8.70;99.90;;;;;;5072664;28;20056;-76
2023/04/18 06:47:39;;;;;;;12.95;9.82;;;8.90;99.90;;;;;;5072081;28;20044;-76
2023/04/18 06:50:06;;;;;;;9.70;8.30;;;9.20;99.90;;;;;;5072032;28;20119;-77
2023/04/18 06:52:32;;;;;;;11.88;9.05;;;9.30;99.90;;;;;;5070959;28;20393;-76
2023/04/18 06:54:58;;;;;;;11.82;8.88;;;9.40;99.90;;;;;;5070559;28;20052;-77
2023/04/18 07:20:29;;;;;;;9.32;8.10;;;13.70;94.30;;;;;;5059490;27;20155;-76
2023/04/18 07:22:54;;;;;;;10.00;8.25;;;14.00;95.90;;;;;;5055908;28;20067;-77
2023/04/18 07:25:20;;;;;;;8.35;6.90;;;14.80;95.40;;;;;;5052583;28;20052;-77
2023/04/18 07:27:46;;;;;;;7.90;7.10;;;14.90;94.60;;;;;;5054551;28;20048;-78
2023/04/18 07:30:12;;;;;;;11.23;7.82;;;14.60;94.50;;;;;;5054942;28;20041;-78
2023/04/18 07:32:38;;;;;;;9.02;6.95;;;14.80;95.00;;;;;;5051259;28;20053;-78
2023/04/18 07:35:04;;;;;;;8.82;6.78;;;15.50;95.10;;;;;;5051634;28;20055;-78
2023/04/18 07:37:30;;;;;;;12.05;8.13;;;15.90;93.80;;;;;;5054307;28;20094;-78
2023/04/18 07:39:55;;;;;;;9.90;7.68;;;15.60;92.20;;;;;;5047753;28;20045;-79
2023/04/18 07:42:21;;;;;;;8.30;7.15;;;14.90;93.40;;;;;;5049001;28;20045;-77
2023/04/18 07:44:48;;;;;;;11.20;7.25;;;13.70;92.70;;;;;;5055546;28;20056;-77
2023/04/18 07:47:14;;;;;;;8.93;7.68;;;13.10;94.10;;;;;;5053966;28;20659;-78
2023/04/18 07:49:39;;;;;;;9.30;7.95;;;12.90;93.80;;;;;;5054874;28;20133;-77
2023/04/18 07:52:05;;;;;;;8.43;7.60;;;12.80;93.70;;;;;;5085513;28;20482;-78
2023/04/18 07:54:31;;;;;;;11.88;8.95;;;13.40;94.00;;;;;;5046351;28;20049;-77
2023/04/18 07:56:57;;;;;;;9.52;8.52;;;14.00;93.90;;;;;;5042893;28;20048;-79
2023/04/18 07:59:23;;;;;;;10.00;7.78;;;14.00;93.20;;;;;;5045129;28;20045;-80
2023/04/18 08:01:49;;;;;;;12.85;8.18;;;14.20;92.50;;;;;;5041454;28;20060;-80
2023/04/18 08:04:15;;;;;;;12.25;7.72;;;14.30;93.30;;;;;;5036612;28;20549;-77
2023/04/18 08:06:40;;;;;;;9.93;7.80;;;15.00;93.40;;;;;;5043004;28;20072;-78
2023/04/18 08:09:07;;;;;;;10.75;7.85;;;15.10;91.50;;;;;;5051309;28;20056;-77
2023/04/18 08:11:33;;;;;;;11.25;8.15;;;15.50;92.10;;;;;;5045527;28;20048;-79
2023/04/18 08:13:59;;;;;;;9.35;6.03;;;15.20;90.10;;;;;;5052189;28;20052;-79
2023/04/18 08:16:25;;;;;;;7.93;7.13;;;15.50;91.40;;;;;;5053922;28;20052;-78
2023/04/18 08:18:51;;;;;;;7.38;5.20;;;15.70;90.70;;;;;;5053611;28;20069;-78
2023/04/18 08:21:18;;;;;;;8.95;7.97;;;16.00;91.00;;;;;;5045394;28;20045;-77
2023/04/18 08:23:45;;;;;;;8.02;7.18;;;15.90;90.00;;;;;;5047361;28;20040;-78
2023/04/18 08:26:10;;;;;;;9.43;7.40;;;15.90;89.50;;;;;;5034655;28;20049;-79
2023/04/18 08:28:36;;;;;;;6.28;5.03;;;15.50;86.70;;;;;;5036954;28;20052;-78
2023/04/18 08:31:02;;;;;;;13.73;7.90;;;15.50;88.30;;;;;;5042536;28;20451;-79
2023/04/18 08:33:28;;;;;;;9.05;6.70;;;14.70;89.50;;;;;;5039360;28;20543;-80
2023/04/18 08:35:53;;;;;;;8.23;6.32;;;14.20;90.50;;;;;;5036333;28;20827;-78
2023/04/18 08:38:19;;;;;;;8.75;5.45;;;14.10;90.90;;;;;;5030596;28;20053;-78
2023/04/18 08:40:45;;;;;;;6.63;5.28;;;14.50;90.70;;;;;;5038167;28;20135;-79
2023/04/18 08:43:13;;;;;;;7.43;6.35;;;14.70;90.30;;;;;;5039518;28;20386;-78
2023/04/18 08:45:43;;;;;;;11.25;5.72;;;15.40;90.20;;;;;;5033201;28;20490;-79
2023/04/18 08:48:16;;;;;;;7.43;5.80;;;15.20;90.20;;;;;;5020756;28;20128;-78
2023/04/18 08:50:42;;;;;;;7.85;6.20;;;15.70;90.30;;;;;;5020777;28;20386;-79
2023/04/18 08:53:09;;;;;;;8.88;6.15;;;15.90;90.10;;;;;;5034296;28;20174;-77
2023/04/18 08:55:35;;;;;;;7.50;5.50;;;16.00;89.10;;;;;;5028324;28;20805;-78
2023/04/18 08:58:01;;;;;;;7.90;5.72;;;15.10;88.90;;;;;;5035316;28;20052;-79
2023/04/18 09:00:28;;;;;;;11.63;6.05;;;14.90;90.20;;;;;;5030704;28;20054;-78
2023/04/18 09:02:55;;;;;;;4.57;3.75;;;15.60;90.40;;;;;;5035687;28;20142;-77
2023/04/18 09:05:23;;;;;;;5.90;5.30;;;16.10;89.10;;;;;;5037128;28;20063;-77
2023/04/18 09:07:51;;;;;;;7.22;5.22;;;16.50;89.20;;;;;;5038577;28;20151;-76
2023/04/18 09:10:29;;;;;;;7.50;5.10;;;17.00;88.50;;;;;;5031740;28;20069;-76
2023/04/18 09:12:56;;;;;;;7.43;5.75;;;17.10;87.40;;;;;;5033149;28;20045;-76
2023/04/18 09:15:25;;;;;;;6.43;4.85;;;17.40;87.70;;;;;;5027256;28;20110;-77
2023/04/18 09:17:52;;;;;;;6.55;5.85;;;17.50;86.80;;;;;;5036380;28;20081;-76
2023/04/18 09:20:33;;;;;;;7.72;6.28;;;17.60;86.00;;;;;;5034390;28;20076;-77
2023/04/18 09:23:01;;;;;;;6.80;5.90;;;17.60;85.50;;;;;;5036245;28;20485;-78
2023/04/18 09:25:28;;;;;;;7.30;6.03;;;17.40;86.50;;;;;;5027227;28;20128;-80
2023/04/18 09:27:59;;;;;;;8.77;5.80;;;17.20;86.30;;;;;;5038560;28;20052;-78
2023/04/18 09:30:39;;;;;;;11.55;7.38;;;16.80;87.10;;;;;;5068497;28;20040;-77
2023/04/18 09:33:08;;;;;;;7.60;5.30;;;16.40;87.50;;;;;;5033502;28;20122;-77
2023/04/18 09:35:38;;;;;;;8.88;6.80;;;16.60;88.00;;;;;;5026029;28;20209;-78
2023/04/18 09:38:04;;;;;;;7.80;6.53;;;17.00;87.60;;;;;;5029591;28;20051;-79
2023/04/18 09:40:31;;;;;;;11.35;6.47;;;17.00;86.90;;;;;;5032071;28;20088;-77
2023/04/18 09:42:56;;;;;;;9.00;6.28;;;16.90;86.40;;;;;;5027326;28;20049;-77
2023/04/18 09:45:24;;;;;;;9.85;6.78;;;16.80;86.10;;;;;;5063712;28;20083;-78
2023/04/18 09:47:51;;;;;;;8.95;6.45;;;17.00;86.50;;;;;;5027192;28;20041;-78
2023/04/18 09:50:19;;;;;;;7.18;6.13;;;16.80;86.40;;;;;;5033982;28;20979;-78
2023/04/18 09:52:46;;;;;;;5.85;5.13;;;17.20;86.00;;;;;;5021288;28;20064;-78
2023/04/18 09:55:17;;;;;;;7.07;6.18;;;17.20;85.30;;;;;;5034352;28;20080;-78
2023/04/18 09:57:45;;;;;;;6.32;5.72;;;17.50;85.90;;;;;;5038363;28;20056;-78
2023/04/18 10:00:25;;;;;;;10.43;6.28;;;17.10;84.90;;;;;;5023922;28;20040;-77
2023/04/18 10:03:08;;;;;;;7.75;5.75;;;17.20;84.30;;;;;;5032135;28;20056;-79
2023/04/18 10:05:36;;;;;;;6.63;5.95;;;17.50;84.10;;;;;;5018433;28;20134;-77
2023/04/18 10:08:02;;;;;;;8.57;5.78;;;17.30;84.90;;;;;;5031395;28;20513;-78
2023/04/18 10:10:28;;;;;;;7.30;6.60;;;17.20;85.00;;;;;;5023704;28;20050;-78
2023/04/18 10:12:56;;;;;;;10.18;6.30;;;17.20;84.70;;;;;;5017194;28;20037;-79
2023/04/18 10:15:24;;;;;;;8.57;5.75;;;17.60;85.70;;;;;;5019563;28;20716;-79
2023/04/18 10:18:00;;;;;;;7.28;6.30;;;17.40;83.70;;;;;;5022410;28;20505;-78
2023/04/18 10:20:28;;;;;;;7.82;6.43;;;17.50;84.40;;;;;;5038497;28;20202;-80
2023/04/18 10:22:55;;;;;;;9.80;7.13;;;17.20;83.70;;;;;;5021283;28;20053;-79
2023/04/18 10:25:39;;;;;;;9.13;6.30;;;17.60;85.00;;;;;;5032409;28;20177;-79
2023/04/18 10:28:06;;;;;;;7.25;5.60;;;17.90;85.30;;;;;;5021416;28;20053;-80
2023/04/18 10:30:41;;;;;;;7.78;5.45;;;18.20;84.70;;;;;;5036956;28;20442;-80
2023/04/18 10:33:26;;;;;;;7.95;6.38;;;18.20;84.20;;;;;;5040826;28;20041;-79
2023/04/18 10:35:56;;;;;;;9.55;6.72;;;18.40;83.50;;;;;;5028996;28;20102;-80
2023/04/18 10:38:23;;;;;;;8.93;6.35;;;18.70;81.40;;;;;;5036927;28;20049;-79
2023/04/18 10:40:48;;;;;;;6.50;5.60;;;18.30;81.60;;;;;;5035400;28;20055;-81
2023/04/18 10:43:14;;;;;;;9.88;6.35;;;18.60;81.40;;;;;;5030259;28;20045;-80
2023/04/18 10:45:40;;;;;;;10.90;6.15;;;18.00;81.60;;;;;;5023648;28;20076;-79
2023/04/18 10:48:26;;;;;;;8.05;6.53;;;17.80;82.50;;;;;;5034733;28;20553;-80
2023/04/18 10:51:15;;;;;;;7.30;6.60;;;17.60;82.60;;;;;;5035250;28;20052;-79
2023/04/18 10:53:51;;;;;;;7.03;6.35;;;17.00;84.70;;;;;;5070110;28;20948;-79
2023/04/18 10:56:16;;;;;;;7.25;6.55;;;16.60;85.90;;;;;;5024820;28;20049;-80
2023/04/18 10:58:48;;;;;;;8.35;5.93;;;15.70;87.30;;;;;;5035997;28;20055;-78
2023/04/18 11:01:19;;;;;;;8.38;6.60;;;15.40;87.90;;;;;;5033497;28;20083;-78
2023/04/18 11:03:45;;;;;;;9.23;6.47;;;15.20;88.70;;;;;;5039488;28;20044;-79
2023/04/18 11:06:10;;;;;;;8.63;6.15;;;15.10;88.80;;;;;;5032104;28;20055;-79
2023/04/18 11:08:36;;;;;;;6.32;5.05;;;15.00;89.00;;;;;;5039867;28;20059;-79
2023/04/18 11:11:05;;;;;;;8.23;5.93;;;15.00;88.80;;;;;;5026618;28;20088;-80
2023/04/18 11:13:31;;;;;;;8.90;6.10;;;14.80;89.50;;;;;;5029024;28;20147;-78
2023/04/18 11:15:57;;;;;;;9.55;7.38;;;14.70;89.10;;;;;;5035959;28;20433;-79
2023/04/18 11:18:22;;;;;;;8.93;6.63;;;14.60;88.90;;;;;;5038801;28;20053;-78
2023/04/18 11:20:50;;;;;;;7.18;6.20;;;14.50;90.00;;;;;;5038638;28;20056;-79
2023/04/18 11:23:19;;;;;;;7.53;6.50;;;15.20;90.40;;;;;;5040390;28;20053;-80
2023/04/18 11:25:48;;;;;;;9.23;6.68;;;14.40;90.90;;;;;;5036899;28;20429;-79
2023/04/18 11:28:21;;;;;;;9.90;6.80;;;14.50;91.40;;;;;;5026647;28;20791;-78
2023/04/18 11:30:47;;;;;;;9.88;6.00;;;14.70;91.30;;;;;;5039292;28;20044;-81
2023/04/18 11:33:13;;;;;;;10.35;7.25;;;14.70;90.60;;;;;;5039314;28;20486;-80
2023/04/18 11:35:46;;;;;;;10.48;8.07;;;14.70;91.30;;;;;;5037432;28;20569;-80
2023/04/18 11:38:13;;;;;;;10.23;8.63;;;14.80;91.20;;;;;;5031202;28;20059;-80
2023/04/18 11:40:46;;;;;;;10.20;8.45;;;14.80;90.90;;;;;;5038131;28;20513;-79
2023/04/18 11:43:21;;;;;;;6.75;6.05;;;14.70;90.80;;;;;;5028148;28;20489;-80
2023/04/18 11:45:57;;;;;;;10.73;6.63;;;14.70;90.80;;;;;;5039276;28;20053;-79
2023/04/18 11:48:32;;;;;;;9.23;6.43;;;14.70;91.10;;;;;;5020609;28;20077;-79
2023/04/18 11:50:58;;;;;;;8.50;7.55;;;14.60;91.10;;;;;;5032980;28;20190;-80
2023/04/18 11:53:34;;;;;;;10.63;9.63;;;14.60;91.60;;;;;;5021940;28;20546;-81
2023/04/18 11:56:02;;;;;;;9.10;6.75;;;14.60;91.90;;;;;;5020726;28;20053;-79
2023/04/18 11:58:35;;;;;;;7.43;5.75;;;14.70;92.10;;;;;;5023543;28;20045;-80
2023/04/18 12:01:20;;;;;;;7.00;6.30;;;14.60;92.20;;;;;;5031426;28;20050;-79
2023/04/18 12:03:59;;;;;;;8.07;6.57;;;14.60;92.20;;;;;;5025325;28;20057;-80
2023/04/18 12:06:26;;;;;;;8.65;7.05;;;14.50;92.50;;;;;;5027866;28;20050;-79
2023/04/18 12:08:58;;;;;;;6.53;5.68;;;14.60;92.20;;;;;;5030495;28;20052;-79
2023/04/18 12:11:24;;;;;;;7.50;6.43;;;14.70;91.80;;;;;;5030880;28;20103;-79
2023/04/18 12:13:55;;;;;;;7.80;6.97;;;14.70;91.70;;;;;;5042231;28;20128;-79
2023/04/18 12:16:26;;;;;;;9.55;7.63;;;14.80;92.10;;;;;;5043215;28;20053;-80
2023/04/18 12:18:59;;;;;;;8.02;6.43;;;14.70;91.60;;;;;;5039060;28;20140;-80
2023/04/18 12:21:28;;;;;;;7.07;6.38;;;14.70;91.80;;;;;;5031800;28;20057;-78
2023/04/18 12:23:54;;;;;;;6.57;5.90;;;14.70;91.90;;;;;;5026769;28;20051;-78
2023/04/18 12:26:22;;;;;;;5.93;5.32;;;14.80;91.90;;;;;;5033338;28;20055;-80
2023/04/18 12:28:52;;;;;;;6.75;6.07;;;14.60;91.60;;;;;;5042173;28;20045;-79
2023/04/18 12:31:18;;;;;;;5.15;4.30;;;14.80;91.70;;;;;;5037191;28;20123;-80
2023/04/18 12:33:44;;;;;;;6.53;5.82;;;14.90;91.10;;;;;;5032548;28;20053;-78
2023/04/18 12:36:10;;;;;;;4.82;4.15;;;14.80;91.10;;;;;;5034634;28;20044;-80
2023/04/18 12:38:35;;;;;;;5.00;4.50;;;14.90;91.30;;;;;;5037528;28;20072;-78
2023/04/18 12:41:01;;;;;;;6.70;5.47;;;15.00;91.20;;;;;;5040865;28;20088;-79
2023/04/18 12:43:27;;;;;;;5.05;4.35;;;14.90;91.50;;;;;;5011144;28;20129;-78
2023/04/18 12:45:53;;;;;;;8.35;5.85;;;15.20;91.70;;;;;;5028093;28;20095;-79
2023/04/18 12:48:18;;;;;;;5.40;4.90;;;15.20;92.10;;;;;;5041587;28;20108;-78
2023/04/18 12:50:44;;;;;;;5.82;4.57;;;15.30;91.30;;;;;;5039864;28;20175;-78
2023/04/18 12:53:10;;;;;;;4.97;4.47;;;15.30;91.50;;;;;;5041805;28;20056;-78
2023/04/18 12:55:36;;;;;;;5.75;4.50;;;15.30;91.30;;;;;;5042220;28;20138;-79
2023/04/18 12:58:02;;;;;;;8.25;4.95;;;15.10;91.70;;;;;;5042237;28;20056;-79
2023/04/18 13:00:30;;;;;;;5.72;4.35;;;15.10;92.50;;;;;;5042194;28;20102;-79
2023/04/18 13:02:56;;;;;;;5.38;4.35;;;15.30;91.40;;;;;;5041538;28;20057;-78
2023/04/18 13:05:25;;;;;;;4.78;4.30;;;15.30;91.40;;;;;;5041602;28;20045;-78
2023/04/18 13:07:52;;;;;;;4.70;4.28;;;15.50;91.60;;;;;;5036446;28;20599;-79
2023/04/18 13:10:20;;;;;;;4.57;3.97;;;15.40;91.70;;;;;;5040803;28;20144;-79